createdAt,value
2022-07-30T00:01:10.636Z,62.50
2022-07-30T00:03:41.417Z,62.40
2022-07-30T00:06:18.189Z,62.80
2022-07-30T00:08:51.127Z,62.80
2022-07-30T00:11:19.251Z,63.00
2022-07-30T00:13:49.249Z,63.00
2022-07-30T00:16:17.176Z,63.20
2022-07-30T00:18:53.567Z,63.30
2022-07-30T00:21:36.137Z,63.50
2022-07-30T00:24:05.975Z,63.30
2022-07-30T00:26:33.948Z,63.80
2022-07-30T00:29:02.022Z,63.90
2022-07-30T00:31:32.525Z,63.60
2022-07-30T00:33:59.579Z,64.40
2022-07-30T00:36:26.553Z,64.30
2022-07-30T00:38:57.013Z,64.50
2022-07-30T00:41:26.584Z,64.70
2022-07-30T00:43:55.790Z,64.90
2022-07-30T00:46:23.585Z,65.10
2022-07-30T00:48:51.718Z,65.00
2022-07-30T00:51:22.202Z,65.30
2022-07-30T00:53:58.316Z,65.30
2022-07-30T00:56:28.076Z,65.30
2022-07-30T00:58:59.223Z,65.50
2022-07-30T01:01:27.636Z,65.50
2022-07-30T01:03:56.444Z,65.90
2022-07-30T01:06:25.864Z,65.90
2022-07-30T01:09:01.236Z,66.00
2022-07-30T01:11:40.632Z,66.20
2022-07-30T01:14:09.625Z,66.30
2022-07-30T01:16:45.406Z,66.50
2022-07-30T01:19:30.486Z,66.50
2022-07-30T01:22:21.140Z,66.70
2022-07-30T01:25:17.672Z,66.80
2022-07-30T01:28:03.871Z,66.80
2022-07-30T01:30:34.752Z,67.40
2022-07-30T01:33:09.308Z,67.70
2022-07-30T01:35:49.538Z,68.00
2022-07-30T01:38:24.324Z,68.20
2022-07-30T01:41:00.686Z,67.80
2022-07-30T01:43:35.330Z,67.80
2022-07-30T01:46:20.476Z,67.90
2022-07-30T01:48:50.710Z,68.70
2022-07-30T01:51:25.807Z,68.10
2022-07-30T01:54:04.698Z,68.10
2022-07-30T01:56:40.527Z,68.50
2022-07-30T01:59:22.010Z,68.60
2022-07-30T02:01:51.214Z,68.50
2022-07-30T02:04:22.282Z,68.60
2022-07-30T02:07:15.662Z,68.90
2022-07-30T02:10:13.307Z,69.50
2022-07-30T02:12:51.069Z,69.00
2022-07-30T02:15:46.849Z,68.90
2022-07-30T02:18:58.561Z,69.50
2022-07-30T02:21:36.576Z,69.80
2022-07-30T02:24:14.522Z,69.90
2022-07-30T02:26:43.780Z,69.60
2022-07-30T02:29:24.105Z,70.10
2022-07-30T02:31:58.131Z,70.20
2022-07-30T02:34:28.043Z,70.10
2022-07-30T02:36:58.933Z,70.70
2022-07-30T02:39:33.305Z,70.50
2022-07-30T02:42:11.879Z,70.70
2022-07-30T02:44:43.710Z,70.70
2022-07-30T02:47:13.767Z,70.80
2022-07-30T02:49:44.369Z,70.90
2022-07-30T02:52:15.202Z,71.20
2022-07-30T02:54:53.105Z,71.80
2022-07-30T02:57:28.863Z,71.20
2022-07-30T03:00:02.472Z,71.70
2022-07-30T03:02:31.617Z,71.90
2022-07-30T03:05:02.294Z,71.70
2022-07-30T03:07:31.670Z,71.80
2022-07-30T03:10:00.496Z,71.60
2022-07-30T03:12:33.631Z,72.30
2022-07-30T03:15:03.489Z,72.40
2022-07-30T03:17:39.359Z,72.40
2022-07-30T03:20:29.602Z,73.10
2022-07-30T03:23:01.538Z,73.00
2022-07-30T03:25:42.787Z,73.10
2022-07-30T03:28:15.455Z,73.10
2022-07-30T03:30:49.188Z,73.20
2022-07-30T03:33:38.214Z,73.30
2022-07-30T03:36:14.749Z,73.40
2022-07-30T03:38:53.445Z,73.40
2022-07-30T03:41:34.083Z,73.60
2022-07-30T03:44:02.636Z,73.50
2022-07-30T03:46:40.079Z,73.70
2022-07-30T03:49:10.433Z,73.70
2022-07-30T03:51:48.600Z,73.70
2022-07-30T03:54:16.120Z,73.70
2022-07-30T03:56:46.826Z,73.90
2022-07-30T03:59:34.901Z,74.10
2022-07-30T04:02:11.863Z,74.40
2022-07-30T04:04:43.116Z,74.40
2022-07-30T04:07:10.123Z,74.80
2022-07-30T04:09:46.016Z,75.30
2022-07-30T04:12:21.982Z,75.10
2022-07-30T04:14:50.748Z,75.00
2022-07-30T04:17:44.157Z,75.00
2022-07-30T04:20:23.860Z,75.10
2022-07-30T04:23:03.569Z,75.10
2022-07-30T04:25:38.498Z,75.20
2022-07-30T04:28:09.090Z,75.00
2022-07-30T04:30:37.845Z,74.80
2022-07-30T04:33:08.015Z,75.00
2022-07-30T04:35:51.020Z,75.00
2022-07-30T04:38:20.707Z,75.50
2022-07-30T04:40:47.983Z,75.30
2022-07-30T04:43:23.819Z,75.20
2022-07-30T04:45:51.552Z,75.10
2022-07-30T04:48:22.113Z,75.20
2022-07-30T04:51:03.061Z,75.50
2022-07-30T04:53:33.519Z,76.00
2022-07-30T04:56:06.307Z,75.90
2022-07-30T04:58:36.288Z,75.80
2022-07-30T05:01:13.647Z,75.80
2022-07-30T05:03:44.605Z,75.90
2022-07-30T05:06:15.221Z,75.80
2022-07-30T05:08:50.216Z,76.00
2022-07-30T05:11:19.143Z,75.80
2022-07-30T05:13:53.624Z,75.70
2022-07-30T05:16:23.708Z,76.20
2022-07-30T05:18:55.779Z,76.30
2022-07-30T05:21:26.137Z,76.70
2022-07-30T05:24:02.179Z,76.50
2022-07-30T05:26:32.270Z,76.80
2022-07-30T05:29:00.348Z,76.80
2022-07-30T05:31:34.817Z,76.70
2022-07-30T05:34:04.335Z,76.70
2022-07-30T05:36:33.976Z,76.80
2022-07-30T05:39:01.101Z,76.70
2022-07-30T05:41:33.309Z,76.90
2022-07-30T05:44:05.811Z,76.90
2022-07-30T05:46:36.178Z,76.90
2022-07-30T05:49:06.895Z,77.10
2022-07-30T05:51:38.357Z,77.10
2022-07-30T05:54:14.981Z,77.60
2022-07-30T05:56:51.365Z,77.40
2022-07-30T05:59:20.659Z,77.60
2022-07-30T06:01:50.016Z,77.90
2022-07-30T06:04:18.185Z,78.10
2022-07-30T06:06:47.363Z,78.10
2022-07-30T06:09:17.084Z,78.20
2022-07-30T06:11:50.360Z,78.10
2022-07-30T06:14:18.823Z,78.00
2022-07-30T06:16:48.016Z,78.20
2022-07-30T06:19:19.271Z,78.60
2022-07-30T06:22:05.916Z,78.50
2022-07-30T06:24:37.487Z,78.80
2022-07-30T06:27:09.051Z,79.00
2022-07-30T06:29:39.302Z,79.10
2022-07-30T06:32:16.061Z,79.40
2022-07-30T06:34:45.905Z,80.10
2022-07-30T06:37:15.099Z,80.10
2022-07-30T06:39:56.321Z,80.10
2022-07-30T06:42:37.423Z,80.10
2022-07-30T06:45:08.424Z,80.00
2022-07-30T06:47:38.972Z,80.00
2022-07-30T06:52:57.375Z,80.50
2022-07-30T06:55:36.533Z,80.60
2022-07-30T06:58:05.735Z,80.80
2022-07-30T07:00:36.143Z,80.80
2022-07-30T07:03:07.451Z,80.60
2022-07-30T07:05:40.527Z,80.70
2022-07-30T07:08:09.891Z,81.20
2022-07-30T07:10:37.967Z,81.00
2022-07-30T07:13:06.191Z,80.70
2022-07-30T07:15:37.624Z,80.50
2022-07-30T07:18:06.515Z,80.70
2022-07-30T07:20:48.083Z,80.50
2022-07-30T07:23:19.647Z,80.40
2022-07-30T07:25:50.431Z,80.20
2022-07-30T07:28:19.509Z,80.40
2022-07-30T07:30:50.231Z,80.60
2022-07-30T07:33:20.937Z,80.20
2022-07-30T07:35:50.321Z,80.20
2022-07-30T07:38:18.406Z,80.40
2022-07-30T07:40:49.020Z,80.00
2022-07-30T07:43:18.058Z,79.50
2022-07-30T07:45:46.303Z,79.30
2022-07-30T07:48:14.897Z,79.20
2022-07-30T07:50:43.784Z,79.20
2022-07-30T07:53:11.938Z,79.10
2022-07-30T07:55:42.720Z,78.90
2022-07-30T07:58:13.124Z,78.90
2022-07-30T08:00:45.777Z,78.70
2022-07-30T08:03:16.115Z,78.40
2022-07-30T08:06:05.622Z,78.40
2022-07-30T08:08:43.019Z,78.30
2022-07-30T08:11:14.360Z,78.30
2022-07-30T08:13:53.867Z,78.60
2022-07-30T08:16:22.005Z,78.00
2022-07-30T08:18:53.906Z,77.60
2022-07-30T08:21:32.182Z,76.90
2022-07-30T08:24:00.095Z,77.20
2022-07-30T08:26:32.426Z,77.30
2022-07-30T08:29:00.100Z,77.30
2022-07-30T08:31:30.389Z,77.50
2022-07-30T08:33:57.094Z,77.50
2022-07-30T08:36:27.231Z,77.10
2022-07-30T08:38:57.840Z,76.60
2022-07-30T08:41:26.946Z,75.80
2022-07-30T08:43:54.856Z,75.90
2022-07-30T08:46:29.883Z,75.60
2022-07-30T08:48:58.131Z,75.30
2022-07-30T08:51:28.480Z,75.30
2022-07-30T08:53:58.427Z,75.40
2022-07-30T08:56:34.170Z,75.20
2022-07-30T08:59:10.320Z,75.00
2022-07-30T09:01:40.441Z,74.70
2022-07-30T09:04:13.242Z,74.90
2022-07-30T09:06:41.298Z,74.50
2022-07-30T09:09:11.844Z,74.10
2022-07-30T09:11:40.110Z,74.20
2022-07-30T09:14:15.068Z,74.30
2022-07-30T09:16:51.663Z,74.20
2022-07-30T09:19:21.814Z,73.70
2022-07-30T09:22:04.688Z,73.50
2022-07-30T09:24:46.614Z,73.20
2022-07-30T09:27:14.558Z,72.60
2022-07-30T09:29:41.223Z,72.70
2022-07-30T09:32:08.377Z,72.50
2022-07-30T09:34:42.312Z,72.60
2022-07-30T09:37:23.021Z,72.10
2022-07-30T09:39:59.480Z,71.90
2022-07-30T09:42:37.460Z,71.30
2022-07-30T09:45:15.611Z,71.50
2022-07-30T09:47:51.946Z,71.40
2022-07-30T09:50:30.373Z,72.20
2022-07-30T09:53:11.937Z,72.30
2022-07-30T09:55:50.636Z,71.70
2022-07-30T09:58:27.013Z,72.60
2022-07-30T10:01:04.056Z,72.50
2022-07-30T10:03:41.971Z,72.70
2022-07-30T10:06:12.016Z,72.40
2022-07-30T10:08:53.445Z,72.00
2022-07-30T10:11:24.116Z,72.40
2022-07-30T10:13:59.450Z,72.70
2022-07-30T10:16:36.761Z,72.90
2022-07-30T10:19:18.108Z,72.60
2022-07-30T10:21:54.540Z,71.50
2022-07-30T10:24:29.941Z,71.40
2022-07-30T10:27:07.769Z,71.50
2022-07-30T10:29:42.786Z,71.60
2022-07-30T10:32:10.422Z,71.90
2022-07-30T10:34:42.611Z,72.00
2022-07-30T10:37:26.583Z,72.30
2022-07-30T10:40:05.909Z,72.10
2022-07-30T10:42:47.527Z,72.10
2022-07-30T10:45:47.208Z,71.10
2022-07-30T10:48:18.540Z,70.80
2022-07-30T10:50:57.887Z,70.10
2022-07-30T10:53:43.762Z,70.00
2022-07-30T10:56:30.145Z,69.10
2022-07-30T10:59:09.291Z,69.20
2022-07-30T11:01:58.265Z,69.20
2022-07-30T11:04:32.221Z,68.90
2022-07-30T11:07:26.207Z,69.00
2022-07-30T11:10:09.670Z,68.20
2022-07-30T11:12:55.113Z,68.10
2022-07-30T11:15:33.165Z,67.20
2022-07-30T11:18:12.187Z,67.30
2022-07-30T11:20:48.306Z,67.20
2022-07-30T11:23:25.839Z,67.20
2022-07-30T11:26:02.852Z,66.60
2022-07-30T11:28:45.602Z,65.30
2022-07-30T11:31:59.344Z,65.70
2022-07-30T11:34:30.724Z,65.90
2022-07-30T11:37:18.270Z,65.10
2022-07-30T11:40:03.820Z,65.10
2022-07-30T11:42:38.486Z,64.90
2022-07-30T11:45:22.150Z,64.70
2022-07-30T11:47:56.031Z,64.30
2022-07-30T11:50:36.710Z,64.50
2022-07-30T11:53:10.571Z,63.60
2022-07-30T11:55:46.624Z,64.10
2022-07-30T11:58:35.961Z,63.40
2022-07-30T12:01:21.029Z,63.00
2022-07-30T12:03:50.490Z,62.80
2022-07-30T12:06:30.856Z,62.60
2022-07-30T12:09:00.606Z,61.60
2022-07-30T12:11:35.593Z,61.70
2022-07-30T12:14:25.322Z,61.10
2022-07-30T12:16:59.831Z,61.60
2022-07-30T12:19:28.393Z,60.90
2022-07-30T12:22:00.013Z,60.70
2022-07-30T12:24:30.267Z,60.50
2022-07-30T12:27:10.920Z,60.30
2022-07-30T12:29:39.247Z,59.10
2022-07-30T12:32:09.122Z,59.10
2022-07-30T12:34:37.049Z,58.70
2022-07-30T12:37:10.917Z,57.90
2022-07-30T12:39:38.072Z,57.20
2022-07-30T12:42:17.647Z,57.10
2022-07-30T12:44:54.985Z,55.90
2022-07-30T12:47:30.381Z,55.20
2022-07-30T12:50:04.092Z,55.40
2022-07-30T12:52:37.486Z,55.90
2022-07-30T12:55:14.432Z,54.30
2022-07-30T12:58:05.435Z,54.20
2022-07-30T13:00:57.533Z,54.80
2022-07-30T13:03:32.114Z,53.80
2022-07-30T13:06:31.234Z,54.40
2022-07-30T13:09:02.690Z,54.30
2022-07-30T13:11:51.287Z,53.70
2022-07-30T13:14:23.636Z,52.20
2022-07-30T13:16:55.746Z,52.40
2022-07-30T13:19:23.221Z,51.40
2022-07-30T13:21:54.259Z,51.40
2022-07-30T13:24:31.438Z,50.80
2022-07-30T13:27:03.756Z,50.90
2022-07-30T13:29:37.800Z,51.70
2022-07-30T13:32:08.565Z,50.90
2022-07-30T13:34:38.950Z,50.80
2022-07-30T13:37:09.247Z,50.40
2022-07-30T13:39:46.063Z,49.90
2022-07-30T13:42:15.445Z,49.10
2022-07-30T13:45:06.884Z,48.80
2022-07-30T13:47:36.724Z,49.00
2022-07-30T13:50:07.197Z,49.20
2022-07-30T13:52:37.455Z,48.90
2022-07-30T13:55:07.445Z,47.90
2022-07-30T13:57:38.957Z,48.20
2022-07-30T14:00:13.738Z,48.20
2022-07-30T14:02:53.544Z,48.40
2022-07-30T14:05:21.345Z,48.20
2022-07-30T14:07:51.830Z,48.50
2022-07-30T14:10:27.710Z,48.50
2022-07-30T14:13:09.584Z,47.50
2022-07-30T14:15:39.289Z,47.30
2022-07-30T14:18:10.806Z,47.00
2022-07-30T14:20:43.597Z,46.80
2022-07-30T14:23:21.419Z,46.90
2022-07-30T14:25:49.777Z,47.40
2022-07-30T14:28:26.193Z,47.60
2022-07-30T14:30:56.153Z,47.10
2022-07-30T14:33:26.765Z,46.10
2022-07-30T14:35:55.260Z,45.60
2022-07-30T14:38:26.116Z,45.50
2022-07-30T14:40:55.422Z,45.70
2022-07-30T14:43:26.901Z,45.30
2022-07-30T14:45:58.413Z,45.50
2022-07-30T14:48:40.863Z,45.80
2022-07-30T14:51:24.166Z,46.30
2022-07-30T14:53:57.020Z,46.20
2022-07-30T14:56:26.867Z,46.00
2022-07-30T14:58:57.128Z,45.10
2022-07-30T15:01:25.371Z,44.90
2022-07-30T15:04:07.330Z,45.20
2022-07-30T15:06:34.776Z,45.30
2022-07-30T15:09:03.971Z,45.20
2022-07-30T15:12:07.944Z,44.70
2022-07-30T15:14:39.984Z,44.50
2022-07-30T15:17:11.081Z,44.40
2022-07-30T15:19:50.026Z,43.80
2022-07-30T15:22:40.039Z,43.90
2022-07-30T15:25:08.665Z,44.30
2022-07-30T15:27:45.061Z,44.30
2022-07-30T15:30:14.800Z,44.30
2022-07-30T15:32:42.865Z,44.30
2022-07-30T15:35:13.938Z,44.50
2022-07-30T15:37:44.621Z,44.40
2022-07-30T15:40:12.779Z,43.70
2022-07-30T15:42:40.772Z,43.80
2022-07-30T15:45:17.694Z,44.30
2022-07-30T15:47:49.175Z,44.30
2022-07-30T15:50:20.880Z,44.50
2022-07-30T15:52:49.507Z,44.20
2022-07-30T15:55:19.852Z,43.90
2022-07-30T15:57:47.894Z,43.90
2022-07-30T16:00:14.899Z,44.00
2022-07-30T16:02:44.649Z,43.50
2022-07-30T16:05:14.265Z,43.80
2022-07-30T16:07:42.579Z,44.50
2022-07-30T16:10:18.947Z,44.60
2022-07-30T16:12:55.389Z,44.60
2022-07-30T16:15:26.559Z,44.10
2022-07-30T16:17:54.717Z,44.60
2022-07-30T16:20:24.544Z,44.80
2022-07-30T16:22:52.358Z,44.60
2022-07-30T16:25:28.219Z,44.10
2022-07-30T16:27:56.592Z,44.10
2022-07-30T16:30:24.119Z,44.00
2022-07-30T16:33:03.844Z,44.30
2022-07-30T16:35:32.080Z,44.20
2022-07-30T16:38:03.058Z,44.70
2022-07-30T16:40:42.387Z,44.50
2022-07-30T16:43:12.773Z,44.80
2022-07-30T16:48:27.537Z,44.70
2022-07-30T16:50:55.839Z,44.70
2022-07-30T16:53:26.830Z,44.60
2022-07-30T16:55:56.751Z,44.60
2022-07-30T16:58:32.985Z,44.10
2022-07-30T17:01:01.627Z,44.70
2022-07-30T17:03:29.750Z,44.80
2022-07-30T17:05:59.391Z,45.00
2022-07-30T17:08:27.562Z,44.50
2022-07-30T17:10:55.918Z,45.00
2022-07-30T17:13:25.813Z,45.10
2022-07-30T17:15:59.281Z,45.10
2022-07-30T17:18:37.322Z,44.90
2022-07-30T17:21:07.287Z,45.30
2022-07-30T17:23:38.632Z,44.90
2022-07-30T17:26:10.453Z,45.00
2022-07-30T17:28:39.253Z,45.20
2022-07-30T17:31:09.481Z,45.40
2022-07-30T17:33:36.224Z,45.30
2022-07-30T17:36:04.737Z,45.60
2022-07-30T17:38:32.637Z,45.20
2022-07-30T17:41:02.831Z,45.30
2022-07-30T17:43:30.895Z,45.30
2022-07-30T17:46:00.051Z,45.30
2022-07-30T17:48:29.382Z,45.10
2022-07-30T17:51:05.795Z,45.30
2022-07-30T17:53:35.494Z,45.40
2022-07-30T17:56:26.663Z,45.70
2022-07-30T17:58:55.977Z,45.90
2022-07-30T18:01:27.334Z,45.70
2022-07-30T18:03:59.689Z,45.80
2022-07-30T18:06:30.188Z,45.90
2022-07-30T18:09:00.992Z,46.00
2022-07-30T18:11:29.332Z,46.30
2022-07-30T18:13:59.962Z,46.50
2022-07-30T18:16:27.953Z,46.90
2022-07-30T18:18:55.972Z,46.70
2022-07-30T18:21:23.009Z,46.90
2022-07-30T18:23:52.970Z,47.50
2022-07-30T18:26:23.052Z,47.10
2022-07-30T18:28:53.148Z,47.10
2022-07-30T18:31:21.939Z,47.80
2022-07-30T18:33:50.220Z,47.40
2022-07-30T18:36:26.350Z,47.60
2022-07-30T18:38:58.422Z,47.80
2022-07-30T18:41:35.443Z,48.00
2022-07-30T18:44:03.729Z,48.00
2022-07-30T18:46:34.005Z,48.50
2022-07-30T18:49:21.157Z,48.70
2022-07-30T18:51:57.795Z,48.80
2022-07-30T18:54:36.489Z,48.80
2022-07-30T18:57:09.058Z,48.90
2022-07-30T18:59:42.991Z,49.10
2022-07-30T19:02:23.302Z,49.40
2022-07-30T19:04:55.925Z,49.50
2022-07-30T19:07:25.073Z,49.90
2022-07-30T19:09:55.419Z,50.40
2022-07-30T19:12:24.887Z,51.10
2022-07-30T19:14:53.276Z,51.90
2022-07-30T19:17:21.549Z,52.90
2022-07-30T19:20:12.682Z,53.70
2022-07-30T19:22:40.955Z,54.20
2022-07-30T19:25:11.420Z,54.30
2022-07-30T19:27:47.302Z,54.60
2022-07-30T19:30:16.514Z,55.00
2022-07-30T19:32:44.425Z,55.20
2022-07-30T19:35:13.551Z,55.50
2022-07-30T19:37:43.657Z,56.10
2022-07-30T19:40:14.176Z,57.10
2022-07-30T19:42:44.660Z,57.90
2022-07-30T19:45:15.969Z,58.50
2022-07-30T19:47:46.778Z,58.70
2022-07-30T19:50:16.920Z,59.10
2022-07-30T19:52:51.346Z,59.70
2022-07-30T19:55:35.701Z,59.80
2022-07-30T19:58:16.253Z,59.80
2022-07-30T20:00:55.796Z,60.50
2022-07-30T20:03:25.713Z,60.90
2022-07-30T20:06:07.257Z,61.00
2022-07-30T20:08:40.834Z,61.20
2022-07-30T20:11:34.802Z,61.80
2022-07-30T20:14:15.525Z,61.90
2022-07-30T20:16:45.420Z,61.80
2022-07-30T20:19:15.642Z,61.70
2022-07-30T20:21:56.531Z,61.90
2022-07-30T20:24:29.053Z,62.10
2022-07-30T20:26:57.962Z,62.40
2022-07-30T20:29:28.809Z,62.20
2022-07-30T20:34:47.024Z,63.30
2022-07-30T20:37:23.543Z,63.40
2022-07-30T20:39:56.539Z,63.60
2022-07-30T20:42:27.059Z,63.50
2022-07-30T20:44:59.526Z,63.80
2022-07-30T20:47:38.265Z,63.90
2022-07-30T20:53:05.382Z,64.40
2022-07-30T20:55:33.906Z,64.70
2022-07-30T20:58:12.595Z,64.30
2022-07-30T21:00:49.683Z,65.20
2022-07-30T21:03:21.232Z,65.00
2022-07-30T21:05:52.385Z,65.10
2022-07-30T21:08:25.284Z,65.50
2022-07-30T21:10:55.659Z,65.50
2022-07-30T21:13:26.304Z,66.30
2022-07-30T21:16:03.585Z,66.20
2022-07-30T21:18:49.839Z,66.20
2022-07-30T21:21:38.599Z,66.70
2022-07-30T21:24:13.467Z,66.90
2022-07-30T21:26:53.304Z,67.10
2022-07-30T21:29:24.150Z,67.20
2022-07-30T21:32:02.081Z,67.10
2022-07-30T21:34:42.156Z,67.10
2022-07-30T21:37:20.200Z,67.70
2022-07-30T21:42:48.602Z,67.80
2022-07-30T21:45:17.838Z,68.30
2022-07-30T21:47:48.212Z,68.40
2022-07-30T21:50:19.717Z,68.60
2022-07-30T21:52:51.628Z,68.80
2022-07-30T21:55:21.414Z,68.70
2022-07-30T21:57:52.937Z,68.80
2022-07-30T22:00:28.402Z,69.20
2022-07-30T22:02:55.154Z,69.30
2022-07-30T22:05:38.492Z,69.90
2022-07-30T22:08:10.399Z,69.80
2022-07-30T22:10:43.459Z,69.90
2022-07-30T22:13:12.255Z,70.40
2022-07-30T22:15:42.526Z,70.40
2022-07-30T22:21:09.352Z,70.80
2022-07-30T22:23:38.082Z,71.30
2022-07-30T22:26:08.098Z,71.50
2022-07-30T22:28:42.993Z,72.30
2022-07-30T22:31:22.273Z,71.80
2022-07-30T22:33:54.063Z,72.00
2022-07-30T22:36:25.796Z,71.40
2022-07-30T22:38:58.477Z,72.40
2022-07-30T22:41:29.020Z,72.60
2022-07-30T22:44:01.881Z,72.70
2022-07-30T22:46:32.793Z,73.60
2022-07-30T22:49:01.907Z,73.40
2022-07-30T22:52:00.855Z,73.70
2022-07-30T22:54:45.322Z,73.80
2022-07-30T22:57:26.214Z,74.70
2022-07-30T23:02:38.209Z,75.00
2022-07-30T23:05:18.617Z,75.00
2022-07-30T23:07:56.880Z,75.30
2022-07-30T23:10:30.394Z,75.20
2022-07-30T23:12:19.598Z,64.40
2022-07-30T23:13:00.350Z,76.00
2022-07-30T23:15:30.747Z,76.80
2022-07-30T23:18:07.688Z,76.90
2022-07-30T23:20:37.703Z,76.80
2022-07-30T23:23:09.670Z,76.90
2022-07-30T23:25:45.453Z,76.90
2022-07-30T23:28:14.851Z,77.30
2022-07-30T23:31:12.450Z,78.40
2022-07-30T23:33:41.617Z,78.90
2022-07-30T23:36:10.215Z,78.60
2022-07-30T23:38:39.490Z,78.90
2022-07-30T23:41:12.796Z,78.70
2022-07-30T23:43:45.227Z,78.60
2022-07-30T23:46:17.864Z,79.00
2022-07-30T23:48:46.015Z,79.80
2022-07-30T23:51:12.891Z,79.90
2022-07-30T23:53:48.553Z,81.20
2022-07-30T23:56:16.137Z,81.20
2022-07-30T23:58:48.806Z,83.10
